Home > Products > Valid Products > TAF

000
FTUS42 KMLB 211800 AAA
TAFMLB
TAF AMD
KMLB 211852Z 2119/2218 08009KT P6SM VCTS SCT040CB BKN250
      TEMPO 2119/2120 VRB10G15KT 2SM TSRA BKN035CB BKN080
     FM220100 VRB03KT P6SM FEW030 BKN250=



000
FTUS42 KMLB 211700
TAFMCO
TAF
KMCO 211739Z 2118/2218 VRB04KT P6SM SCT035 BKN250
     FM212100 08006KT P6SM VCSH SCT040 BKN250
     FM220100 VRB03KT P6SM FEW035 SCT250=



000
FTUS42 KMLB 211700
TAFMLB
TAF
KMLB 211739Z 2118/2218 08009KT P6SM VCSH SCT040 BKN250
      TEMPO 2118/2120 6SM -SHRA BKN035 BKN080
     FM220100 VRB03KT P6SM FEW030 BKN250=



000
FTUS42 KMLB 211700
TAFDAB
TAF
KDAB 211739Z 2118/2218 05007KT P6SM SCT035 SCT250
     FM220100 VRB03KT P6SM FEW030 SCT250=



000
FTUS42 KMLB 211700
TAFVRB
TAF
KVRB 211739Z 2118/2218 08009KT P6SM VCTS SCT040CB BKN250
      TEMPO 2119/2121 3SM TSRA BKN030CB OVC080
     FM220100 VRB03KT P6SM SCT035 BKN150=



000
FTUS42 KMLB 211700
TAFSFB
TAF
KSFB 211739Z 2118/2218 06005KT P6SM SCT035 BKN250
     FM220100 VRB03KT P6SM FEW035 SCT250=



000
FTUS42 KMLB 211400 AAA
TAFMCO
TAF AMD
KMCO 211450Z 2115/2212 VRB03KT P6SM FEW025 SCT070 BKN250
     FM211800 18004KT P6SM VCSH SCT030 BKN100
     FM220100 18003KT P6SM FEW035 BKN120=



000
FTUS42 KMLB 211200 AAA
TAFSFB
TAF AMD
KSFB 211209Z 2112/2212 30005KT P6SM SCT005
      TEMPO 2112/2113 1/4SM FG BKN005
     FM211400 36004KT P6SM FEW025 SCT250
     FM211800 06005KT P6SM VCSH SCT030 BKN120
     FM220100 18003KT P6SM FEW035 BKN120=



000
FTUS42 KMLB 211100 RRA
TAFSFB
TAF
KSFB 211141Z 2112/2212 30005KT P6SM SCT007
      TEMPO 2112/2113 2SM BR BKN005
     FM211400 36004KT P6SM FEW025 SCT250
     FM211800 06005KT P6SM VCSH SCT030 BKN120
     FM220100 18003KT P6SM FEW035 BKN120=



000
FTUS42 KMLB 211100 RRA
TAFMCO
TAF
KMCO 211141Z 2112/2212 36004KT P6SM BKN008
      TEMPO 2112/2113 5SM BR OVC005
     FM211400 VRB03KT P6SM FEW025 BKN250
     FM211800 18004KT P6SM VCSH SCT030 BKN100
     FM220100 18003KT P6SM FEW035 BKN120=



000
FTUS42 KMLB 211100 RRA
TAFVRB
TAF
KVRB 211141Z 2112/2212 28003KT 4SM MIFG SCT002 BKN150
      TEMPO 2112/2113 1/4SM FG VV002
     FM211400 26005KT P6SM SCT020 BKN100
     FM211800 09007KT P6SM VCTS SCT025CB BKN080
      TEMPO 2119/2121 3SM TSRA BKN030CB
     FM220100 VRB02KT P6SM FEW030 BKN120=



000
FTUS42 KMLB 211100 RRA
TAFDAB
TAF
KDAB 211141Z 2112/2212 30004KT P6SM FEW030 SCT250
     FM211400 35007KT P6SM FEW025 SCT250
     FM211800 06007KT P6SM SCT030 BKN120
     FM220100 VRB02KT P6SM FEW030 BKN150=



000
FTUS42 KMLB 211100 RRA
TAFMLB
TAF
KMLB 211141Z 2112/2212 29004KT P6SM BKN140
     FM211400 32005KT P6SM SCT020 BKN200
     FM211800 09007KT P6SM VCTS SCT025CB BKN100
     FM220100 VRB02KT P6SM FEW030 BKN120=



000
FTUS42 KMLB 211000 AAB
TAFMCO
TAF AMD
KMCO 211042Z 2111/2206 35004KT P6SM BKN008
      TEMPO 2111/2112 4SM BR OVC005
     FM211300 VRB03KT P6SM FEW025 BKN250
     FM211800 18004KT P6SM VCSH SCT030 BKN100
     FM220100 18003KT P6SM FEW035 BKN120=



000
FTUS42 KMLB 210900 AAA
TAFMCO
TAF AMD
KMCO 210919Z 2109/2206 34003KT P6SM FEW008 BKN250
      TEMPO 2110/2112 4SM BR BKN008
     FM211400 VRB03KT P6SM FEW025 BKN250
     FM211800 18004KT P6SM VCSH SCT030 BKN100 PROB30 2119/2122 3SM
      SHRA BKN030
     FM220100 18003KT P6SM FEW035 BKN120=



000
FTUS42 KMLB 210800 AAA
TAFSFB
TAF AMD
KSFB 210849Z 2109/2206 30005KT 4SM BR BKN007
      TEMPO 2110/2112 6SM BR SCT008
     FM211400 36004KT P6SM FEW025 BKN250
     FM211800 06005KT P6SM VCSH SCT030 BKN120
     FM220100 18003KT P6SM FEW035 BKN120=



000
FTUS42 KMLB 210700 AAA
TAFVRB
TAF AMD
KVRB 210741Z 2108/2206 VRB03KT 6SM BR SCT002
      TEMPO 2108/2112 2SM BR BKN002
     FM211400 26005KT P6SM SCT020 BKN100
     FM211800 09007KT P6SM VCTS SCT025CB BKN080 PROB30 2118/2121 3SM
      TSRA BKN030CB
     FM220100 VRB02KT P6SM FEW030 BKN120=



000
FTUS42 KMLB 210500 RRA
TAFVRB
TAF
KVRB 210543Z 2106/2206 23005KT P6SM BKN140
     FM211400 26005KT P6SM SCT020 BKN100
     FM211800 09007KT P6SM VCTS SCT025CB BKN080 PROB30 2118/2121 3SM
      TSRA BKN030CB
     FM220100 VRB02KT P6SM FEW030 BKN120=



000
FTUS42 KMLB 210500 RRA
TAFMLB
TAF
KMLB 210543Z 2106/2206 26005KT P6SM BKN140
     FM211400 32005KT P6SM SCT020 BKN200
     FM211800 09007KT P6SM VCTS SCT025CB BKN100 PROB30 2118/2121 3SM
      TSRA BKN030CB
     FM220100 VRB02KT P6SM FEW030 BKN120=



000
FTUS42 KMLB 210500 RRA
TAFSFB
TAF
KSFB 210543Z 2106/2206 33005KT P6SM FEW010 BKN250
      TEMPO 2106/2108 SCT008
     FM211400 36004KT P6SM FEW025 BKN250
     FM211800 06005KT P6SM VCSH SCT030 BKN120
     FM220100 18003KT P6SM FEW035 BKN120=



000
FTUS42 KMLB 210500 RRA
TAFDAB
TAF
KDAB 210543Z 2106/2206 31005KT P6SM SCT035 BKN100
      TEMPO 2106/2108 SCT008 BKN035
     FM211400 35007KT P6SM FEW025 BKN250
     FM211800 06007KT P6SM SCT030 BKN120
     FM220100 VRB02KT P6SM FEW030 BKN150=



000
FTUS42 KMLB 210500 RRA
TAFMCO
TAF
KMCO 210543Z 2106/2206 34005KT P6SM FEW010 BKN250
     FM210800 00000KT P6SM BKN250
     FM211400 VRB03KT P6SM FEW025 BKN250
     FM211800 18004KT P6SM VCSH SCT030 BKN100 PROB30 2119/2122 3SM
      SHRA BKN030
     FM220100 18003KT P6SM FEW035 BKN120=



000
FTUS42 KMLB 210200 AAA
TAFMCO
TAF AMD
KMCO 210251Z 2103/2124 30002KT P6SM VCSH FEW050 BKN250
     FM210800 00000KT P6SM SCT015 BKN250
     FM211400 VRB03KT P6SM SCT035 SCT250
     FM211800 18004KT P6SM SCT030 BKN080 PROB30 2119/2122 3SM SHRA
      BKN030=



000
FTUS42 KMLB 202300
TAFSFB
TAF
KSFB 202332Z 2100/2124 34009KT P6SM VCSH SCT020 SCT050 BKN120
      TEMPO 2100/2102 -SHRA BKN035 OVC050
     FM210400 31005KT P6SM SCT015 BKN250
     FM211400 36004KT P6SM SCT035 SCT250
     FM211800 06005KT P6SM SCT030 BKN080 PROB30 2119/2122 3SM SHRA
      BKN030=



000
FTUS42 KMLB 202300
TAFMLB
TAF
KMLB 202332Z 2100/2124 20005KT P6SM VCSH SCT025 SCT060 BKN120
     FM210200 27006KT P6SM VCSH SCT020 SCT060 BKN120
     FM210600 27004KT P6SM SCT015 SCT060 BKN120
     FM211400 32005KT P6SM SCT020 BKN100
     FM211800 09007KT P6SM SCT025 BKN120 PROB30 2118/2121 5SM SHRA
      BKN030=



000
FTUS42 KMLB 202300
TAFVRB
TAF
KVRB 202332Z 2100/2124 28004KT P6SM VCSH SCT025 SCT060 BKN120
     FM210600 26003KT P6SM SCT015 SCT060 BKN120
     FM211400 26005KT P6SM SCT020 BKN100
     FM211800 09007KT P6SM SCT025 BKN120 PROB30 2118/2121 5SM SHRA
      BKN030=



000
FTUS42 KMLB 202300
TAFDAB
TAF
KDAB 202332Z 2100/2124 33008KT P6SM VCSH SCT020 SCT050 BKN120
      TEMPO 2100/2103 5SM SHRA BKN025 OVC050
     FM210400 31006KT P6SM SCT015 BKN250
     FM211400 35007KT P6SM SCT035 SCT250
     FM211800 06007KT P6SM SCT030 BKN080 PROB30 2119/2122 3SM SHRA
      BKN030=



000
FTUS42 KMLB 202300
TAFMCO
TAF
KMCO 202332Z 2100/2124 34009KT P6SM VCSH SCT025 SCT050 BKN120
      TEMPO 2100/2102 -SHRA BKN035 OVC050
     FM210400 31005KT P6SM SCT015 BKN250
     FM211400 VRB03KT P6SM SCT035 SCT250
     FM211800 18004KT P6SM SCT030 BKN080 PROB30 2119/2122 3SM SHRA
      BKN030=



000
FTUS42 KMLB 202200 AAA
TAFDAB
TAF AMD
KDAB 202210Z 2022/2118 35009KT P6SM VCSH SCT020 BKN035 OVC050
      TEMPO 2022/2023 1SM +SHRA BKN015 OVC025
     FM202300 35008KT P6SM VCSH SCT015 BKN035
      TEMPO 2023/2024 3SM SHRA BKN020
     FM210400 32005KT P6SM SCT035 BKN250=



000
FTUS42 KMLB 202100 AAA
TAFMCO
TAF AMD
KMCO 202113Z 2021/2118 29008KT P6SM VCSH SCT025 SCT040 BKN250
      TEMPO 2021/2024 5SM SHRA BKN035 OVC050
     FM210400 31005KT P6SM SCT030 BKN250
     FM211400 34006KT P6SM SCT035 SCT250=



000
FTUS42 KMLB 201700 RRA
TAFVRB
TAF
KVRB 201742Z 2018/2118 25008KT P6SM VCSH SCT025 BKN035
      TEMPO 2018/2021 3SM SHRA BR BKN025
     FM210000 27008KT P6SM VCSH SCT020 BKN060
     FM210400 29005KT P6SM SCT035 BKN250=



000
FTUS42 KMLB 201700 RRA
TAFMCO
TAF
KMCO 201742Z 2018/2118 33008KT P6SM VCSH SCT025 BKN050
      TEMPO 2018/2019 BKN025
     FM202100 28008KT P6SM VCSH SCT025 BKN050
      TEMPO 2021/2023 5SM SHRA BKN035 OVC050
     FM210400 31005KT P6SM SCT035 BKN250=



000
FTUS42 KMLB 201700 RRA
TAFDAB
TAF
KDAB 201742Z 2018/2118 34010KT P6SM VCSH BKN015 BKN045
     FM202000 36009KT P6SM VCSH SCT025 BKN050
      TEMPO 2020/2023 5SM SHRA BKN035 OVC050
     FM210400 32005KT P6SM SCT035 BKN250=



000
FTUS42 KMLB 201700 RRA
TAFSFB
TAF
KSFB 201742Z 2018/2118 33008KT P6SM VCSH SCT025 BKN050
     FM202100 28008KT P6SM VCSH SCT025 BKN050
      TEMPO 2021/2023 5SM SHRA BKN035 OVC050
     FM210400 31005KT P6SM SCT035 BKN250=



000
FTUS42 KMLB 201700 RRA
TAFMLB
TAF
KMLB 201742Z 2018/2118 31010KT P6SM VCSH SCT008 BKN030
      TEMPO 2018/2021 3SM SHRA BR BKN010
     FM210000 27008KT P6SM VCSH SCT020 BKN060
     FM210400 29005KT P6SM SCT035 BKN250=



000
FTUS42 KMLB 201600 AAB
TAFMLB
TAF AMD
KMLB 201623Z 2016/2112 29007KT P6SM VCSH BKN015 OVC035
      TEMPO 2016/2018 3SM SHRA OVC015
     FM201800 27007KT P6SM VCSH SCT030 OVC050
      TEMPO 2018/2021 3SM SHRA BKN025
     FM210000 25004KT P6SM VCSH SCT020 BKN040=



000
FTUS42 KMLB 201500 AAB
TAFMCO
TAF AMD
KMCO 201504Z 2015/2112 36009KT 6SM -RA SCT015 BKN025 OVC050
     FM201800 28006KT P6SM VCSH SCT025 BKN040
      TEMPO 2018/2021 3SM SHRA BKN025
     FM210000 26004KT P6SM VCSH SCT025 BKN080=



000
FTUS42 KMLB 201400 AAA
TAFMLB
TAF AMD
KMLB 201431Z 2015/2112 23007KT P6SM VCSH SCT009 BKN030 OVC050
      TEMPO 2015/2016 3SM RA BR BKN009
     FM201800 27007KT P6SM VCSH SCT030 OVC050
      TEMPO 2018/2021 3SM SHRA BKN025
     FM210000 25004KT P6SM VCSH SCT020 BKN040=



000
FTUS42 KMLB 201400 AAA
TAFDAB
TAF AMD
KDAB 201428Z 2014/2112 33009KT P6SM VCSH SCT005 BKN050
     FM201800 29007KT P6SM VCSH SCT030 OVC040
      TEMPO 2018/2021 3SM SHRA BKN025
     FM210000 VRB03KT P6SM VCSH SCT025 BKN060=



000
FTUS42 KMLB 201300 AAA
TAFSFB
TAF AMD
KSFB 201313Z 2013/2112 03004KT P6SM -RA SCT005 OVC025
      TEMPO 2013/2015 5SM -RA BR BKN005
     FM201500 34005KT P6SM VCSH SCT020 BKN050 OVC100
     FM201800 29006KT P6SM VCSH SCT025 BKN040
      TEMPO 2018/2021 3SM SHRA BKN025
     FM210000 26004KT P6SM VCSH SCT025 BKN080=



000
FTUS42 KMLB 201300 AAA
TAFMCO
TAF AMD
KMCO 201312Z 2013/2112 08007KT P6SM -RA SCT006 OVC025
      TEMPO 2013/2015 4SM RA BR BKN015
     FM201500 32004KT P6SM VCSH SCT022 BKN080 OVC150
     FM201800 28006KT P6SM VCSH SCT025 BKN040
      TEMPO 2018/2021 3SM SHRA BKN025
     FM210000 26004KT P6SM VCSH SCT025 BKN080=



000
FTUS42 KMLB 201100
TAFVRB
TAF
KVRB 201125Z 2012/2112 VRB04KT P6SM -RA SCT035 OVC110
     FM201500 28005KT P6SM VCSH BKN030 OVC050
     FM201800 26008KT P6SM VCSH SCT030 OVC050
      TEMPO 2018/2021 3SM SHRA BKN025
     FM210000 25003KT P6SM VCSH SCT020 BKN040=



000
FTUS42 KMLB 201100
TAFMLB
TAF
KMLB 201125Z 2012/2112 VRB04KT P6SM -RA SCT035 BKN100
     FM201500 33005KT P6SM VCSH BKN030 OVC050
     FM201800 27007KT P6SM VCSH SCT030 OVC050
      TEMPO 2018/2021 3SM SHRA BKN025
     FM210000 25004KT P6SM VCSH SCT020 BKN040=



000
FTUS42 KMLB 201100
TAFDAB
TAF
KDAB 201125Z 2012/2112 06004KT P6SM -RA FEW012 SCT020 OVC050
     FM201400 04005KT P6SM VCSH BKN030 OVC050
     FM201800 29007KT P6SM VCSH SCT030 OVC040
      TEMPO 2018/2021 3SM SHRA BKN025
     FM210000 VRB03KT P6SM VCSH SCT025 BKN060=



000
FTUS42 KMLB 201100
TAFMCO
TAF
KMCO 201125Z 2012/2112 08007KT P6SM -RA SCT006 OVC025
      TEMPO 2012/2013 4SM RA BR OVC006
     FM201500 32004KT P6SM VCSH SCT022 BKN080 OVC150
     FM201800 28006KT P6SM VCSH SCT025 BKN040
      TEMPO 2018/2021 3SM SHRA BKN025
     FM210000 26004KT P6SM VCSH SCT025 BKN080=



000
FTUS42 KMLB 201100
TAFSFB
TAF
KSFB 201125Z 2012/2112 00000KT P6SM -RA SCT007 OVC025
     FM201400 34005KT P6SM VCSH SCT020 BKN050 OVC100
     FM201800 29006KT P6SM VCSH SCT025 BKN040
      TEMPO 2018/2021 3SM SHRA BKN025
     FM210000 26004KT P6SM VCSH SCT025 BKN080=



000
FTUS42 KMLB 200700 AAA
TAFVRB
TAF AMD
KVRB 200716Z 2007/2106 34005KT P6SM -RA SCT018 BKN040
     FM201400 23008KT P6SM VCSH BKN030 OVC050
     FM201800 27008KT P6SM VCSH SCT030 OVC050
      TEMPO 2018/2021 3SM TSRA BKN025CB
     FM210000 25003KT P6SM SCT020 BKN040 BKN080=



000
FTUS42 KMLB 200700 AAA
TAFMLB
TAF AMD
KMLB 200715Z 2007/2106 04009KT P6SM -RA FEW012 BKN040
     FM201400 23005KT P6SM VCSH BKN030 OVC050
     FM201800 28007KT P6SM VCSH SCT030 OVC050
      TEMPO 2018/2021 3SM TSRA BKN025CB
     FM210000 25004KT P6SM SCT020 BKN040 BKN080=



000
FTUS42 KMLB 200700 AAA
TAFDAB
TAF AMD
KDAB 200715Z 2007/2106 VRB03KT P6SM -RA FEW015 SCT030 OVC080
     FM201400 04005KT P6SM VCSH BKN030 OVC050
     FM201800 34007KT P6SM VCSH SCT030 OVC040
      TEMPO 2018/2021 3SM TSRA BKN025CB
     FM210000 VRB03KT P6SM SCT025 BKN040 BKN080=



000
FTUS42 KMLB 200700 AAA
TAFSFB
TAF AMD
KSFB 200705Z 2007/2106 07008KT P6SM -RA FEW015 OVC080
     FM201400 VRB05KT P6SM VCSH SCT020 BKN050 OVC100
     FM201800 29006KT P6SM VCTS SCT025CB BKN040
      TEMPO 2018/2021 3SM TSRA BKN025CB
     FM210000 26004KT P6SM SCT025 BKN040 BKN080=



000
FTUS42 KMLB 200700 AAA
TAFMCO
TAF AMD
KMCO 200705Z 2007/2106 06008KT P6SM -RA SCT008 OVC060
     FM201400 VRB04KT P6SM VCSH SCT020 BKN040 OVC100
     FM201800 28006KT P6SM VCTS SCT025CB BKN040
      TEMPO 2018/2021 3SM TSRA BKN025CB
     FM210000 26004KT P6SM SCT025 BKN040 BKN080=



000
FTUS42 KMLB 200500
TAFDAB
TAF
KDAB 200539Z 2006/2106 VRB04KT P6SM -RA SCT015 SCT030 OVC100
      TEMPO 2006/2009 BKN030
     FM201400 04005KT P6SM VCSH BKN030 OVC050
     FM201800 34007KT P6SM VCSH SCT030 OVC040
      TEMPO 2018/2021 3SM TSRA BKN025CB
     FM210000 VRB03KT P6SM SCT025 BKN040 BKN080=



000
FTUS42 KMLB 200500
TAFMLB
TAF
KMLB 200539Z 2006/2106 VRB04KT 4SM -RA BR FEW012 BKN030 OVC050
      TEMPO 2006/2010 2SM RA BR BKN015 OVC030
     FM201400 23005KT P6SM VCSH BKN030 OVC050
     FM201800 28007KT P6SM VCSH SCT030 OVC050
      TEMPO 2018/2021 3SM TSRA BKN025CB
     FM210000 25004KT P6SM SCT020 BKN040 BKN080=



000
FTUS42 KMLB 200500
TAFSFB
TAF
KSFB 200539Z 2006/2106 07008KT 6SM -RA BR FEW015 BKN030 OVC060
      TEMPO 2006/2009 BKN025
     FM201400 VRB05KT P6SM VCSH SCT020 BKN050 OVC100
     FM201800 29006KT P6SM VCTS SCT025CB BKN040
      TEMPO 2018/2021 3SM TSRA BKN025CB
     FM210000 26004KT P6SM SCT025 BKN040 BKN080=



000
FTUS42 KMLB 200500
TAFMCO
TAF
KMCO 200539Z 2006/2106 09008KT 6SM -RA BR SCT012 BKN025 OVC060
      TEMPO 2006/2009 BKN012
     FM201400 VRB04KT P6SM VCSH SCT020 BKN040 OVC100
     FM201800 28006KT P6SM VCTS SCT025CB BKN040
      TEMPO 2018/2021 3SM TSRA BKN025CB
     FM210000 26004KT P6SM SCT025 BKN040 BKN080=



000
FTUS42 KMLB 200500
TAFVRB
TAF
KVRB 200539Z 2006/2106 05006KT 6SM -RA BR FEW010 BKN020 OVC040
      TEMPO 2006/2009 3SM RA BR SCT020 BKN040
     FM201400 23008KT P6SM VCSH BKN030 OVC050
     FM201800 27008KT P6SM VCSH SCT030 OVC050
      TEMPO 2018/2021 3SM TSRA BKN025CB
     FM210000 25003KT P6SM SCT020 BKN040 BKN080=



000
FTUS42 KMLB 200300 AAA
TAFDAB
TAF AMD
KDAB 200323Z 2003/2024 04005KT 4SM -RA BR SCT022 BKN060 OVC080
      TEMPO 2003/2006 2SM +SHRA BKN022 OVC060
     FM201400 04005KT P6SM VCSH BKN030 OVC050 PROB30 2014/2018 3SM
      SHRA BKN020
     FM201800 34007KT P6SM VCSH SCT030 OVC040
      TEMPO 2018/2021 3SM TSRA BKN025CB=



000
FTUS42 KMLB 200300 AAB
TAFMCO
TAF AMD
KMCO 200322Z 2003/2024 08008KT P6SM -RA SCT025 OVC080
     FM201400 VRB04KT P6SM VCSH BKN030 OVC050 PROB30 2014/2018 3SM
      SHRA BKN020
     FM201800 28006KT P6SM VCSH SCT030 OVC040
      TEMPO 2018/2021 3SM TSRA BKN025CB=



000
FTUS42 KMLB 200200 AAA
TAFMLB
TAF AMD
KMLB 200232Z 2003/2024 08010KT 5SM -SHRA SCT015 BKN060 OVC120
      TEMPO 2003/2005 3SM SHRA BKN025 OVC060
     FM200500 05005KT 5SM -SHRA BKN030 OVC050
      TEMPO 2005/2008 3SM SHRA BKN025 OVC050
     FM201400 23005KT P6SM VCSH BKN030 OVC050 PROB30 2014/2018 3SM
      SHRA BKN020
     FM201800 25008KT P6SM VCSH SCT030 OVC050
      TEMPO 2018/2021 3SM TSRA BKN025CB=



000
FTUS42 KMLB 200200 AAA
TAFSFB
TAF AMD
KSFB 200230Z 2003/2024 05004KT P6SM -SHRA SCT025 BKN080 OVC120
     FM200400 04005KT 5SM -SHRA BKN030 OVC050
      TEMPO 2004/2006 3SM SHRA BKN025 OVC050
     FM201400 30005KT P6SM VCSH BKN030 OVC050 PROB30 2014/2018 3SM
      SHRA BKN020
     FM201800 31006KT P6SM VCSH SCT030 OVC040
      TEMPO 2018/2021 3SM TSRA BKN025CB=



000
FTUS42 KMLB 200200 AAA
TAFMCO
TAF AMD
KMCO 200229Z 2002/2024 08008KT P6SM -SHRA SCT025 BKN080 OVC120
      TEMPO 2002/2004 5SM SHRA BKN025 OVC050
     FM200400 04005KT 5SM -SHRA BKN030 OVC050
      TEMPO 2004/2006 3SM SHRA BKN025 OVC050
     FM201400 VRB04KT P6SM VCSH BKN030 OVC050 PROB30 2014/2018 3SM
      SHRA BKN020
     FM201800 28006KT P6SM VCSH SCT030 OVC040
      TEMPO 2018/2021 3SM TSRA BKN025CB=



000
FTUS42 KMLB 200200 AAA
TAFVRB
TAF AMD
KVRB 200228Z 2002/2024 VRB04KT 5SM -SHRA FEW008 SCT015 OVC050
      TEMPO 2002/2004 3SM SHRA BKN015
     FM200400 VRB04KT 5SM -SHRA SCT015 OVC030
      TEMPO 2004/2008 3SM SHRA BKN025 OVC050
     FM201400 23008KT P6SM VCSH BKN030 OVC050 PROB30 2014/2018 3SM
      SHRA BKN020
     FM201800 27010KT P6SM VCSH SCT030 OVC050
      TEMPO 2018/2021 3SM TSRA BKN025CB=



000
FTUS42 KMLB 192300
TAFVRB
TAF
KVRB 192336Z 2000/2024 21004KT 5SM -SHRA SCT020 OVC080
     FM200400 VRB04KT 5SM -SHRA BKN030 OVC050
      TEMPO 2004/2008 3SM SHRA BKN025 OVC050
     FM201400 23008KT P6SM VCSH BKN030 OVC050 PROB30 2014/2018 3SM
      SHRA BKN020
     FM201800 27010KT P6SM VCSH SCT030 OVC050
      TEMPO 2018/2021 3SM TSRA BKN025CB=



000
FTUS42 KMLB 192300
TAFMCO
TAF
KMCO 192336Z 2000/2024 03005KT 4SM -SHRA SCT025 BKN070 OVC100
      TEMPO 2000/2004 2SM SHRA BKN025 OVC050
     FM200400 04005KT 5SM -SHRA BKN030 OVC050
      TEMPO 2004/2006 3SM SHRA BKN025 OVC050
     FM201400 VRB04KT P6SM VCSH BKN030 OVC050 PROB30 2014/2018 3SM
      SHRA BKN020
     FM201800 28006KT P6SM VCSH SCT030 OVC040
      TEMPO 2018/2021 3SM TSRA BKN025CB=



000
FTUS42 KMLB 192300
TAFDAB
TAF
KDAB 192336Z 2000/2024 03004KT P6SM -SHRA SCT020 BKN070 OVC100
      TEMPO 2000/2004 4SM SHRA BKN025 OVC050
     FM200400 05005KT 5SM -SHRA BKN030 OVC050
      TEMPO 2004/2006 3SM SHRA BKN025 OVC050
     FM201400 04005KT P6SM VCSH BKN030 OVC050 PROB30 2014/2018 3SM
      SHRA BKN020
     FM201800 34007KT P6SM VCSH SCT030 OVC040
      TEMPO 2018/2021 3SM TSRA BKN025CB=



000
FTUS42 KMLB 192300
TAFSFB
TAF
KSFB 192336Z 2000/2024 04004KT P6SM -SHRA SCT025 BKN070 OVC100
      TEMPO 2000/2004 4SM SHRA BKN025 OVC050
     FM200400 04005KT 5SM -SHRA BKN030 OVC050
      TEMPO 2004/2006 3SM SHRA BKN025 OVC050
     FM201400 30005KT P6SM VCSH BKN030 OVC050 PROB30 2014/2018 3SM
      SHRA BKN020
     FM201800 31006KT P6SM VCSH SCT030 OVC040
      TEMPO 2018/2021 3SM TSRA BKN025CB=



000
FTUS42 KMLB 192300
TAFMLB
TAF
KMLB 192336Z 2000/2024 03004KT 5SM -SHRA SCT020 BKN030 OVC050
      TEMPO 2000/2004 2SM SHRA BKN025 OVC050
     FM200400 05005KT 5SM -SHRA BKN030 OVC050
      TEMPO 2004/2006 3SM SHRA BKN025 OVC050
     FM201400 23005KT P6SM VCSH BKN030 OVC050 PROB30 2014/2018 3SM
      SHRA BKN020
     FM201800 25008KT P6SM VCSH SCT030 OVC050
      TEMPO 2018/2021 3SM TSRA BKN025CB=



000
FTUS42 KMLB 192300 AAB
TAFMCO
TAF AMD
KMCO 192300Z 1923/2018 03005KT 5SM -SHRA SCT025 BKN070 OVC100
      TEMPO 1923/2001 3SM SHRA BKN025 OVC050
     FM200100 04005KT P6SM VCSH BKN030 OVC060
     FM201400 VRB04KT P6SM VCSH BKN030 OVC060=



000
FTUS42 KMLB 192100 AAA
TAFMCO
TAF AMD
KMCO 192109Z 1921/2018 03010KT P6SM VCTS SCT025CB BKN050 OVC100
      TEMPO 1921/1923 VRB15G25KT 2SM TSRA BKN025CB OVC050
     FM200000 04006KT P6SM VCSH BKN030 OVC060
     FM201400 VRB04KT P6SM VCSH BKN030 OVC060=



000
FTUS42 KMLB 191700 RRA
TAFSFB
TAF
KSFB 191742Z 1918/2018 06008KT P6SM VCSH SCT030 SCT110 OVC150
     FM192000 07009KT 6SM -RA SCT030 BKN060 OVC100
     FM200000 VRB04KT P6SM VCSH BKN040 OVC060=



000
FTUS42 KMLB 191700 RRA
TAFMCO
TAF
KMCO 191742Z 1918/2018 06006KT P6SM VCSH SCT030 SCT110 OVC150
     FM192000 05008KT 6SM -RA SCT030 BKN060 OVC100
     FM200000 04006KT P6SM VCSH BKN030 OVC060
     FM201400 VRB04KT P6SM VCSH BKN030 OVC060=



000
FTUS42 KMLB 191700 RRA
TAFDAB
TAF
KDAB 191742Z 1918/2018 05007KT P6SM VCSH SCT030 OVC150
     FM191900 06009KT P6SM -SHRA SCT030 BKN060 OVC100
     FM200000 04004KT P6SM -SHRA BKN030 OVC060
     FM201400 02005KT P6SM VCSH BKN030 OVC060=



000
FTUS42 KMLB 191700 RRA
TAFVRB
TAF
KVRB 191742Z 1918/2018 09008KT P6SM VCSH SCT025 SCT060 OVC150
      TEMPO 1919/1922 3SM TSRA BKN025CB
     FM200000 04005KT P6SM -SHRA OVC030
     FM201400 VRB05KT P6SM -SHRA BKN030 OVC060=



000
FTUS42 KMLB 191700 RRA
TAFMLB
TAF
KMLB 191742Z 1918/2018 07009KT P6SM VCSH SCT025 OVC150
     FM200000 05008KT P6SM -SHRA OVC030
     FM201400 VRB05KT P6SM VCSH BKN030 OVC060=



000
FTUS42 KMLB 191500 AAA
TAFMCO
TAF AMD
KMCO 191516Z 1915/2012 07007KT P6SM VCSH SCT025 BKN150 OVC250
     FM191900 06008KT 6SM -SHRA SCT030 BKN060 OVC100
     FM200000 04004KT P6SM VCSH BKN040 OVC060=



000
FTUS42 KMLB 191100
TAFDAB
TAF
KDAB 191138Z 1912/2012 VRB03KT P6SM FEW025 SCT060 BKN180
     FM191400 05006KT P6SM SCT030 SCT060 BKN120
     FM191900 06009KT P6SM -SHRA SCT030 BKN060 OVC100
     FM200000 04004KT P6SM -SHRA BKN030=



000
FTUS42 KMLB 191100
TAFMCO
TAF
KMCO 191138Z 1912/2012 04003KT P6SM FEW025 SCT150 BKN200
     FM191400 05007KT P6SM SCT050 BKN150
     FM191900 06008KT 6SM -SHRA SCT030 BKN060 OVC100
     FM200000 04004KT P6SM VCSH BKN040 OVC060=



000
FTUS42 KMLB 191100
TAFSFB
TAF
KSFB 191138Z 1912/2012 VRB03KT P6SM FEW025 FEW120 BKN200
     FM191400 04008KT P6SM SCT050 BKN150
     FM191900 07009KT 6SM -SHRA SCT030 BKN060 OVC100
     FM200000 04004KT P6SM VCSH BKN040 OVC060=



000
FTUS42 KMLB 191100
TAFMLB
TAF
KMLB 191138Z 1912/2012 VRB03KT P6SM FEW025 BKN250
     FM191300 06008KT P6SM VCSH FEW025 BKN070 BKN150
     FM191700 06010KT P6SM -SHRA SCT025 BKN050 OVC080
     FM200000 05008KT P6SM -SHRA BKN030=



000
FTUS42 KMLB 191100
TAFVRB
TAF
KVRB 191138Z 1912/2012 00000KT P6SM FEW025 BKN250
     FM191300 07008KT P6SM VCSH FEW025 BKN050 BKN150
     FM191600 07009KT P6SM -SHRA SCT025 BKN040 OVC080
     FM200000 04005KT P6SM -SHRA BKN030=



000
FTUS42 KMLB 190900 AAA
TAFMCO
TAF AMD
KMCO 190939Z 1910/2006 00000KT P6SM FEW025 SCT150 BKN200
     FM191400 05007KT P6SM BKN150
     FM191900 06008KT P6SM VCSH SCT030 OVC100
     FM200000 04004KT P6SM -SHRA BKN040 OVC060=



000
FTUS42 KMLB 190500
TAFMLB
TAF
KMLB 190521Z 1906/2006 12006KT P6SM FEW029
     FM191300 06008KT P6SM VCSH SCT025 BKN070 BKN150
     FM191700 06010KT P6SM -SHRA SCT030 BKN050 OVC080
     FM200000 05008KT P6SM -SHRA BKN030=



000
FTUS42 KMLB 190500
TAFVRB
TAF
KVRB 190521Z 1906/2006 10003KT P6SM SKC
     FM191300 07008KT P6SM VCSH SCT025 BKN050 BKN150
     FM191600 07009KT P6SM -SHRA SCT030 BKN040 OVC080
     FM200000 04005KT P6SM -SHRA BKN030=



000
FTUS42 KMLB 190500
TAFSFB
TAF
KSFB 190521Z 1906/2006 00000KT P6SM BKN200
     FM191400 04008KT P6SM BKN150
     FM191900 07009KT P6SM VCSH SCT030 OVC100
     FM200000 04004KT P6SM -SHRA BKN040 OVC060=



000
FTUS42 KMLB 190500
TAFMCO
TAF
KMCO 190521Z 1906/2006 00000KT P6SM BKN200
     FM191400 05007KT P6SM BKN150
     FM191900 06008KT P6SM VCSH SCT030 OVC100
     FM200000 04004KT P6SM -SHRA BKN040 OVC060=



000
FTUS42 KMLB 190500
TAFDAB
TAF
KDAB 190521Z 1906/2006 00000KT P6SM FEW150 BKN200
     FM191400 05006KT P6SM BKN120
     FM191900 06009KT P6SM VCSH SCT030 OVC100
     FM200000 04004KT P6SM -SHRA BKN030=



000
FTUS42 KMLB 190300 AAA
TAFMCO
TAF AMD
KMCO 190305Z 1903/1924 VRB03KT P6SM SCT120 BKN250
     FM191400 05007KT P6SM SCT025 BKN090 BKN250
     FM191900 06008KT P6SM VCSH SCT040 BKN060 OVC100=



000
FTUS42 KMLB 182300
TAFVRB
TAF
KVRB 182321Z 1900/1924 07005KT P6SM BKN250
     FM190100 09003KT P6SM SCT250
     FM191300 07008KT P6SM VCSH SCT025 BKN050 BKN150
     FM191600 07009KT P6SM -SHRA SCT030 BKN040 OVC080=



000
FTUS42 KMLB 182300
TAFDAB
TAF
KDAB 182321Z 1900/1924 10005KT P6SM FEW035 FEW080 BKN250
     FM190100 00000KT P6SM SCT250
     FM191400 05006KT P6SM VCSH SCT025 BKN080 BKN250
     FM191900 06009KT P6SM VCSH SCT030 BKN060 OVC100=



000
FTUS42 KMLB 182300
TAFSFB
TAF
KSFB 182321Z 1900/1924 10008KT P6SM SCT070 BKN250
     FM190100 VRB02KT P6SM SCT250
     FM191400 04008KT P6SM SCT025 BKN090 BKN250
     FM191900 07009KT P6SM VCSH SCT040 BKN060 OVC100=



000
FTUS42 KMLB 182300
TAFMLB
TAF
KMLB 182321Z 1900/1924 08008KT P6SM BKN250
     FM190200 09003KT P6SM SCT250
     FM191300 06008KT P6SM VCSH SCT025 BKN070 BKN150
     FM191700 06010KT P6SM VCSH SCT030 BKN050 OVC090=



000
FTUS42 KMLB 182300
TAFMCO
TAF
KMCO 182321Z 1900/1924 11008KT P6SM VCTS SCT030CB SCT070 BKN250
     FM190100 VRB02KT P6SM FEW030 SCT250
     FM191400 05007KT P6SM SCT025 BKN090 BKN250
     FM191900 06008KT P6SM VCSH SCT040 BKN060 OVC100=



000
FTUS42 KMLB 182200 AAC
TAFMCO
TAF AMD
KMCO 182221Z 1822/1918 09010KT P6SM VCTS SCT050CB BKN070 BKN250
      TEMPO 1822/1824 34016G30KT 4SM TSRA SCT025 BKN050CB OVC070
     FM190000 VRB03KT P6SM FEW030 BKN250
     FM191400 05009KT P6SM SCT025 SCT150 OVC250=



000
FTUS42 KMLB 182100 AAB
TAFMCO
TAF AMD
KMCO 182155Z 1822/1918 09010KT P6SM VCTS SCT050CB BKN070 BKN250
     FM190000 VRB03KT P6SM FEW030 BKN250
     FM191400 05009KT P6SM SCT025 SCT150 OVC250=



000
FTUS42 KMLB 182100 AAA
TAFMCO
TAF AMD
KMCO 182102Z 1821/1918 08008KT P6SM VCSH SCT050 SCT250
     FM190000 VRB03KT P6SM FEW030 BKN250
     FM191400 05009KT P6SM SCT025 SCT150 OVC250=



    US Dept of Commerce
    National Oceanic and Atmospheric Administration
    National Weather Service
    1325 East West Highway
    Silver Spring, MD 20910
    Page Author: NWS Internet Services Team
Disclaimer
Information Quality
Credits
Glossary
Privacy Policy
Freedom of Information Act (FOIA)
About Us
Career Opportunities